Terminal Aerodrome Forecast
Issued by NWS

Home | Current Version | Previous Version | Text Only | Print | Product List | Glossary On
Versions: 1 2 3 4 5 6 7 8 9 10 11 12 13 14 15 16 17 18
000
FTAK31 PAFA 191129
TAFABT
TAF
PABT 191129Z 1912/2012 VRB03KT 4SM -SHSN BR OVC015
     FM192100 34005KT 4SM BR BKN040
     FM200300 34005KT P6SM SCT050=

USA.gov is the U.S. government's official web portal to all federal, state and local government web resources and services.